sensor_id;sensor_type;location;lat;lon;timestamp;temperature;humidity
50013;DHT22;35901;48.694;9.476;2023-01-24T00:00:45;1.60;99.90
50013;DHT22;35901;48.694;9.476;2023-01-24T00:03:11;1.50;99.90
50013;DHT22;35901;48.694;9.476;2023-01-24T00:05:41;1.60;99.90
50013;DHT22;35901;48.694;9.476;2023-01-24T00:08:08;1.60;99.90
50013;DHT22;35901;48.694;9.476;2023-01-24T00:10:35;1.60;99.90
50013;DHT22;35901;48.694;9.476;2023-01-24T00:13:02;1.50;99.90
50013;DHT22;35901;48.694;9.476;2023-01-24T00:15:27;1.60;99.90
50013;DHT22;35901;48.694;9.476;2023-01-24T00:17:53;1.70;99.90
50013;DHT22;35901;48.694;9.476;2023-01-24T00:20:19;1.70;99.90
50013;DHT22;35901;48.694;9.476;2023-01-24T00:22:45;1.60;99.90
50013;DHT22;35901;48.694;9.476;2023-01-24T00:25:10;1.60;99.90
50013;DHT22;35901;48.694;9.476;2023-01-24T00:27:36;1.60;99.90
50013;DHT22;35901;48.694;9.476;2023-01-24T00:30:03;1.60;99.90
50013;DHT22;35901;48.694;9.476;2023-01-24T00:32:29;1.90;99.90
50013;DHT22;35901;48.694;9.476;2023-01-24T00:34:55;1.90;99.90
50013;DHT22;35901;48.694;9.476;2023-01-24T00:37:23;1.80;99.90
50013;DHT22;35901;48.694;9.476;2023-01-24T00:39:48;1.70;99.90
50013;DHT22;35901;48.694;9.476;2023-01-24T00:42:14;1.60;99.90
50013;DHT22;35901;48.694;9.476;2023-01-24T00:44:40;1.60;99.90
50013;DHT22;35901;48.694;9.476;2023-01-24T00:47:05;1.60;99.90
50013;DHT22;35901;48.694;9.476;2023-01-24T00:49:31;1.60;99.90
50013;DHT22;35901;48.694;9.476;2023-01-24T00:51:57;1.80;99.90
50013;DHT22;35901;48.694;9.476;2023-01-24T00:54:22;1.70;99.90
50013;DHT22;35901;48.694;9.476;2023-01-24T00:56:48;1.70;99.90
50013;DHT22;35901;48.694;9.476;2023-01-24T00:59:14;1.80;99.90
50013;DHT22;35901;48.694;9.476;2023-01-24T01:01:42;1.80;99.90
50013;DHT22;35901;48.694;9.476;2023-01-24T01:04:09;1.80;99.90
50013;DHT22;35901;48.694;9.476;2023-01-24T01:06:35;1.70;99.90
50013;DHT22;35901;48.694;9.476;2023-01-24T01:09:01;1.70;99.90
50013;DHT22;35901;48.694;9.476;2023-01-24T01:11:26;1.60;99.90
50013;DHT22;35901;48.694;9.476;2023-01-24T01:13:56;1.60;99.90
50013;DHT22;35901;48.694;9.476;2023-01-24T01:16:22;1.60;99.90
50013;DHT22;35901;48.694;9.476;2023-01-24T01:18:50;1.70;99.90
50013;DHT22;35901;48.694;9.476;2023-01-24T01:21:19;1.60;99.90
50013;DHT22;35901;48.694;9.476;2023-01-24T01:23:45;1.60;99.90
50013;DHT22;35901;48.694;9.476;2023-01-24T01:26:18;1.70;99.90
50013;DHT22;35901;48.694;9.476;2023-01-24T01:28:44;1.70;99.90
50013;DHT22;35901;48.694;9.476;2023-01-24T01:31:13;1.70;99.90
50013;DHT22;35901;48.694;9.476;2023-01-24T01:33:39;1.70;99.90
50013;DHT22;35901;48.694;9.476;2023-01-24T01:36:05;1.90;99.90
50013;DHT22;35901;48.694;9.476;2023-01-24T01:38:31;1.70;99.90
50013;DHT22;35901;48.694;9.476;2023-01-24T01:40:57;1.70;99.90
50013;DHT22;35901;48.694;9.476;2023-01-24T01:43:25;1.70;99.90
50013;DHT22;35901;48.694;9.476;2023-01-24T01:45:53;1.70;99.90
50013;DHT22;35901;48.694;9.476;2023-01-24T01:48:29;1.60;99.90
50013;DHT22;35901;48.694;9.476;2023-01-24T01:51:05;1.60;99.90
50013;DHT22;35901;48.694;9.476;2023-01-24T01:53:37;1.60;99.90
50013;DHT22;35901;48.694;9.476;2023-01-24T01:56:15;1.70;99.90
50013;DHT22;35901;48.694;9.476;2023-01-24T01:58:41;1.60;99.90
50013;DHT22;35901;48.694;9.476;2023-01-24T02:01:06;1.60;99.90
50013;DHT22;35901;48.694;9.476;2023-01-24T02:03:37;1.70;99.90
50013;DHT22;35901;48.694;9.476;2023-01-24T02:06:10;1.90;99.90
50013;DHT22;35901;48.694;9.476;2023-01-24T02:08:36;1.80;99.90
50013;DHT22;35901;48.694;9.476;2023-01-24T02:11:02;1.80;99.90
50013;DHT22;35901;48.694;9.476;2023-01-24T02:13:47;1.90;99.90
50013;DHT22;35901;48.694;9.476;2023-01-24T02:16:15;1.80;99.90
50013;DHT22;35901;48.694;9.476;2023-01-24T02:18:42;1.70;99.90
50013;DHT22;35901;48.694;9.476;2023-01-24T02:21:11;1.80;99.90
50013;DHT22;35901;48.694;9.476;2023-01-24T02:26:22;1.80;99.90
50013;DHT22;35901;48.694;9.476;2023-01-24T02:29:03;1.70;99.90
50013;DHT22;35901;48.694;9.476;2023-01-24T02:32:05;1.60;99.90
50013;DHT22;35901;48.694;9.476;2023-01-24T02:34:31;1.60;99.90
50013;DHT22;35901;48.694;9.476;2023-01-24T02:37:05;1.70;99.90
50013;DHT22;35901;48.694;9.476;2023-01-24T02:40:05;1.70;99.90
50013;DHT22;35901;48.694;9.476;2023-01-24T02:42:35;1.60;99.90
50013;DHT22;35901;48.694;9.476;2023-01-24T02:47:38;1.60;99.90
50013;DHT22;35901;48.694;9.476;2023-01-24T02:50:06;1.50;99.90
50013;DHT22;35901;48.694;9.476;2023-01-24T02:52:33;1.50;99.90
50013;DHT22;35901;48.694;9.476;2023-01-24T02:55:18;1.60;99.90
50013;DHT22;35901;48.694;9.476;2023-01-24T02:57:44;1.50;99.90
50013;DHT22;35901;48.694;9.476;2023-01-24T03:00:28;1.50;99.90
50013;DHT22;35901;48.694;9.476;2023-01-24T03:02:56;1.50;99.90
50013;DHT22;35901;48.694;9.476;2023-01-24T03:05:21;1.50;99.90
50013;DHT22;35901;48.694;9.476;2023-01-24T03:07:48;1.50;99.90
50013;DHT22;35901;48.694;9.476;2023-01-24T03:10:18;1.50;99.90
50013;DHT22;35901;48.694;9.476;2023-01-24T03:12:47;1.50;99.90
50013;DHT22;35901;48.694;9.476;2023-01-24T03:15:31;1.50;99.90
50013;DHT22;35901;48.694;9.476;2023-01-24T03:18:16;1.50;99.90
50013;DHT22;35901;48.694;9.476;2023-01-24T03:21:00;1.50;99.90
50013;DHT22;35901;48.694;9.476;2023-01-24T03:23:44;1.50;99.90
50013;DHT22;35901;48.694;9.476;2023-01-24T03:26:28;1.50;99.90
50013;DHT22;35901;48.694;9.476;2023-01-24T03:29:14;1.50;99.90
50013;DHT22;35901;48.694;9.476;2023-01-24T03:31:58;1.50;99.90
50013;DHT22;35901;48.694;9.476;2023-01-24T03:34:44;1.50;99.90
50013;DHT22;35901;48.694;9.476;2023-01-24T03:37:23;1.50;99.90
50013;DHT22;35901;48.694;9.476;2023-01-24T03:40:14;1.50;99.90
50013;DHT22;35901;48.694;9.476;2023-01-24T03:42:41;1.50;99.90
50013;DHT22;35901;48.694;9.476;2023-01-24T03:45:25;1.50;99.90
50013;DHT22;35901;48.694;9.476;2023-01-24T03:47:58;1.50;99.90
50013;DHT22;35901;48.694;9.476;2023-01-24T03:50:26;1.50;99.90
50013;DHT22;35901;48.694;9.476;2023-01-24T03:53:12;1.80;99.90
50013;DHT22;35901;48.694;9.476;2023-01-24T03:55:40;1.70;99.90
50013;DHT22;35901;48.694;9.476;2023-01-24T03:58:07;1.60;99.90
50013;DHT22;35901;48.694;9.476;2023-01-24T04:00:34;1.60;99.90
50013;DHT22;35901;48.694;9.476;2023-01-24T04:03:04;1.60;99.90
50013;DHT22;35901;48.694;9.476;2023-01-24T04:05:36;1.60;99.90
50013;DHT22;35901;48.694;9.476;2023-01-24T04:08:03;1.60;99.90
50013;DHT22;35901;48.694;9.476;2023-01-24T04:10:29;1.60;99.90
50013;DHT22;35901;48.694;9.476;2023-01-24T04:12:56;1.70;99.90
50013;DHT22;35901;48.694;9.476;2023-01-24T04:15:26;1.60;99.90
50013;DHT22;35901;48.694;9.476;2023-01-24T04:18:05;1.70;99.90
50013;DHT22;35901;48.694;9.476;2023-01-24T04:20:33;1.70;99.90
50013;DHT22;35901;48.694;9.476;2023-01-24T04:23:03;1.60;99.90
50013;DHT22;35901;48.694;9.476;2023-01-24T04:25:29;1.70;99.90
50013;DHT22;35901;48.694;9.476;2023-01-24T04:27:56;1.70;99.90
50013;DHT22;35901;48.694;9.476;2023-01-24T04:30:25;1.70;99.90
50013;DHT22;35901;48.694;9.476;2023-01-24T04:32:53;1.70;99.90
50013;DHT22;35901;48.694;9.476;2023-01-24T04:35:26;1.60;99.90
50013;DHT22;35901;48.694;9.476;2023-01-24T04:38:01;1.60;99.90
50013;DHT22;35901;48.694;9.476;2023-01-24T04:41:01;1.60;99.90
50013;DHT22;35901;48.694;9.476;2023-01-24T04:43:32;1.70;99.90
50013;DHT22;35901;48.694;9.476;2023-01-24T04:45:59;1.60;99.90
50013;DHT22;35901;48.694;9.476;2023-01-24T04:48:34;1.60;99.90
50013;DHT22;35901;48.694;9.476;2023-01-24T04:51:00;1.60;99.90
50013;DHT22;35901;48.694;9.476;2023-01-24T04:53:28;1.70;99.90
50013;DHT22;35901;48.694;9.476;2023-01-24T04:56:00;1.60;99.90
50013;DHT22;35901;48.694;9.476;2023-01-24T04:58:27;1.60;99.90
50013;DHT22;35901;48.694;9.476;2023-01-24T05:00:53;1.60;99.90
50013;DHT22;35901;48.694;9.476;2023-01-24T05:03:19;1.60;99.90
50013;DHT22;35901;48.694;9.476;2023-01-24T05:05:49;1.60;99.90
50013;DHT22;35901;48.694;9.476;2023-01-24T05:08:14;1.60;99.90
50013;DHT22;35901;48.694;9.476;2023-01-24T05:10:40;1.60;99.90
50013;DHT22;35901;48.694;9.476;2023-01-24T05:13:06;1.60;99.90
50013;DHT22;35901;48.694;9.476;2023-01-24T05:15:32;1.60;99.90
50013;DHT22;35901;48.694;9.476;2023-01-24T05:18:00;1.50;99.90
50013;DHT22;35901;48.694;9.476;2023-01-24T05:20:26;1.60;99.90
50013;DHT22;35901;48.694;9.476;2023-01-24T05:22:57;1.60;99.90
50013;DHT22;35901;48.694;9.476;2023-01-24T05:25:24;1.50;99.90
50013;DHT22;35901;48.694;9.476;2023-01-24T05:27:51;1.60;99.90
50013;DHT22;35901;48.694;9.476;2023-01-24T05:30:17;1.50;99.90
50013;DHT22;35901;48.694;9.476;2023-01-24T05:32:43;1.50;99.90
50013;DHT22;35901;48.694;9.476;2023-01-24T05:35:09;1.50;99.90
50013;DHT22;35901;48.694;9.476;2023-01-24T05:37:39;1.50;99.90
50013;DHT22;35901;48.694;9.476;2023-01-24T05:40:09;1.50;99.90
50013;DHT22;35901;48.694;9.476;2023-01-24T05:42:35;1.60;99.90
50013;DHT22;35901;48.694;9.476;2023-01-24T05:45:01;1.50;99.90
50013;DHT22;35901;48.694;9.476;2023-01-24T05:47:27;1.60;99.90
50013;DHT22;35901;48.694;9.476;2023-01-24T05:49:53;1.60;99.90
50013;DHT22;35901;48.694;9.476;2023-01-24T05:52:19;1.60;99.90
50013;DHT22;35901;48.694;9.476;2023-01-24T05:54:51;1.50;99.90
50013;DHT22;35901;48.694;9.476;2023-01-24T05:57:38;1.50;99.90
50013;DHT22;35901;48.694;9.476;2023-01-24T06:00:29;1.60;99.90
50013;DHT22;35901;48.694;9.476;2023-01-24T06:03:26;1.60;99.90
50013;DHT22;35901;48.694;9.476;2023-01-24T06:05:54;1.50;99.90
50013;DHT22;35901;48.694;9.476;2023-01-24T06:08:22;1.50;99.90
50013;DHT22;35901;48.694;9.476;2023-01-24T06:10:48;1.50;99.90
50013;DHT22;35901;48.694;9.476;2023-01-24T06:13:14;1.50;99.90
50013;DHT22;35901;48.694;9.476;2023-01-24T06:15:40;1.60;99.90
50013;DHT22;35901;48.694;9.476;2023-01-24T06:18:15;1.50;99.90
50013;DHT22;35901;48.694;9.476;2023-01-24T06:20:44;1.50;99.90
50013;DHT22;35901;48.694;9.476;2023-01-24T06:23:24;1.40;99.90
50013;DHT22;35901;48.694;9.476;2023-01-24T06:25:55;1.40;99.90
50013;DHT22;35901;48.694;9.476;2023-01-24T06:28:21;1.40;99.90
50013;DHT22;35901;48.694;9.476;2023-01-24T06:30:54;1.40;99.90
50013;DHT22;35901;48.694;9.476;2023-01-24T06:33:35;1.40;99.90
50013;DHT22;35901;48.694;9.476;2023-01-24T06:38:38;1.30;99.90
50013;DHT22;35901;48.694;9.476;2023-01-24T06:41:13;1.50;99.90
50013;DHT22;35901;48.694;9.476;2023-01-24T06:43:40;1.50;99.90
50013;DHT22;35901;48.694;9.476;2023-01-24T06:46:07;1.50;99.90
50013;DHT22;35901;48.694;9.476;2023-01-24T06:48:33;1.50;99.90
50013;DHT22;35901;48.694;9.476;2023-01-24T06:50:59;1.50;99.90
50013;DHT22;35901;48.694;9.476;2023-01-24T06:53:24;1.40;99.90
50013;DHT22;35901;48.694;9.476;2023-01-24T06:55:50;1.50;99.90
50013;DHT22;35901;48.694;9.476;2023-01-24T06:58:16;1.50;99.90
50013;DHT22;35901;48.694;9.476;2023-01-24T07:00:41;1.40;99.90
50013;DHT22;35901;48.694;9.476;2023-01-24T07:03:07;1.40;99.90
50013;DHT22;35901;48.694;9.476;2023-01-24T07:05:35;1.50;99.90
50013;DHT22;35901;48.694;9.476;2023-01-24T07:08:01;1.50;99.90
50013;DHT22;35901;48.694;9.476;2023-01-24T07:10:27;1.40;99.90
50013;DHT22;35901;48.694;9.476;2023-01-24T07:12:54;1.50;99.90
50013;DHT22;35901;48.694;9.476;2023-01-24T07:15:20;1.50;99.90
50013;DHT22;35901;48.694;9.476;2023-01-24T07:17:45;1.50;99.90
50013;DHT22;35901;48.694;9.476;2023-01-24T07:20:12;1.40;99.90
50013;DHT22;35901;48.694;9.476;2023-01-24T07:22:39;1.50;99.90
50013;DHT22;35901;48.694;9.476;2023-01-24T07:25:16;1.50;99.90
50013;DHT22;35901;48.694;9.476;2023-01-24T07:27:43;1.50;99.90
50013;DHT22;35901;48.694;9.476;2023-01-24T07:30:10;1.50;99.90
50013;DHT22;35901;48.694;9.476;2023-01-24T07:32:36;1.50;99.90
50013;DHT22;35901;48.694;9.476;2023-01-24T07:35:03;1.50;99.90
50013;DHT22;35901;48.694;9.476;2023-01-24T07:37:29;1.50;99.90
50013;DHT22;35901;48.694;9.476;2023-01-24T07:39:55;1.50;99.90
50013;DHT22;35901;48.694;9.476;2023-01-24T07:42:20;1.50;99.90
50013;DHT22;35901;48.694;9.476;2023-01-24T07:44:47;1.50;99.90
50013;DHT22;35901;48.694;9.476;2023-01-24T07:47:13;1.50;99.90
50013;DHT22;35901;48.694;9.476;2023-01-24T07:49:39;1.60;99.90
50013;DHT22;35901;48.694;9.476;2023-01-24T07:52:04;1.60;99.90
50013;DHT22;35901;48.694;9.476;2023-01-24T07:54:30;1.70;99.90
50013;DHT22;35901;48.694;9.476;2023-01-24T07:56:55;1.70;99.90
50013;DHT22;35901;48.694;9.476;2023-01-24T07:59:21;1.60;99.90
50013;DHT22;35901;48.694;9.476;2023-01-24T08:01:47;1.70;99.90
50013;DHT22;35901;48.694;9.476;2023-01-24T08:04:12;1.70;99.90
50013;DHT22;35901;48.694;9.476;2023-01-24T08:06:39;1.70;99.90
50013;DHT22;35901;48.694;9.476;2023-01-24T08:09:27;1.80;99.90
50013;DHT22;35901;48.694;9.476;2023-01-24T08:11:54;1.80;99.90
50013;DHT22;35901;48.694;9.476;2023-01-24T08:14:20;1.80;99.90
50013;DHT22;35901;48.694;9.476;2023-01-24T08:16:48;1.90;99.90
50013;DHT22;35901;48.694;9.476;2023-01-24T08:19:13;1.80;99.90
50013;DHT22;35901;48.694;9.476;2023-01-24T08:21:39;1.80;99.90
50013;DHT22;35901;48.694;9.476;2023-01-24T08:24:05;1.90;99.90
50013;DHT22;35901;48.694;9.476;2023-01-24T08:26:30;2.10;99.90
50013;DHT22;35901;48.694;9.476;2023-01-24T08:28:56;2.00;99.90
50013;DHT22;35901;48.694;9.476;2023-01-24T08:31:22;1.90;99.90
50013;DHT22;35901;48.694;9.476;2023-01-24T08:33:47;1.90;99.90
50013;DHT22;35901;48.694;9.476;2023-01-24T08:36:13;1.90;99.90
50013;DHT22;35901;48.694;9.476;2023-01-24T08:38:39;1.90;99.90
50013;DHT22;35901;48.694;9.476;2023-01-24T08:41:05;2.00;99.90
50013;DHT22;35901;48.694;9.476;2023-01-24T08:43:31;2.00;99.90
50013;DHT22;35901;48.694;9.476;2023-01-24T08:45:57;2.00;99.90
50013;DHT22;35901;48.694;9.476;2023-01-24T08:48:23;2.00;99.90
50013;DHT22;35901;48.694;9.476;2023-01-24T08:50:49;2.00;99.90
50013;DHT22;35901;48.694;9.476;2023-01-24T08:53:15;2.00;99.90
50013;DHT22;35901;48.694;9.476;2023-01-24T08:55:40;2.10;99.90
50013;DHT22;35901;48.694;9.476;2023-01-24T08:58:06;2.10;99.90
50013;DHT22;35901;48.694;9.476;2023-01-24T09:00:32;2.10;99.90
50013;DHT22;35901;48.694;9.476;2023-01-24T09:02:58;2.20;99.90
50013;DHT22;35901;48.694;9.476;2023-01-24T09:05:29;2.20;99.90
50013;DHT22;35901;48.694;9.476;2023-01-24T09:07:55;2.30;99.90
50013;DHT22;35901;48.694;9.476;2023-01-24T09:10:21;2.40;99.90
50013;DHT22;35901;48.694;9.476;2023-01-24T09:12:46;2.30;99.90
50013;DHT22;35901;48.694;9.476;2023-01-24T09:15:12;2.30;99.90
50013;DHT22;35901;48.694;9.476;2023-01-24T09:17:38;2.50;99.90
50013;DHT22;35901;48.694;9.476;2023-01-24T09:20:05;2.60;99.90
50013;DHT22;35901;48.694;9.476;2023-01-24T09:22:32;2.50;99.90
50013;DHT22;35901;48.694;9.476;2023-01-24T09:24:58;2.60;99.90
50013;DHT22;35901;48.694;9.476;2023-01-24T09:27:23;2.50;99.90
50013;DHT22;35901;48.694;9.476;2023-01-24T09:29:49;2.40;99.90
50013;DHT22;35901;48.694;9.476;2023-01-24T09:32:14;2.50;99.90
50013;DHT22;35901;48.694;9.476;2023-01-24T09:34:42;2.70;99.90
50013;DHT22;35901;48.694;9.476;2023-01-24T09:37:15;2.50;99.90
50013;DHT22;35901;48.694;9.476;2023-01-24T09:39:41;2.60;99.90
50013;DHT22;35901;48.694;9.476;2023-01-24T09:42:14;2.50;99.90
50013;DHT22;35901;48.694;9.476;2023-01-24T09:44:53;2.50;99.90
50013;DHT22;35901;48.694;9.476;2023-01-24T09:47:46;2.90;99.90
50013;DHT22;35901;48.694;9.476;2023-01-24T09:50:41;2.80;99.90
50013;DHT22;35901;48.694;9.476;2023-01-24T09:53:28;2.70;99.90
50013;DHT22;35901;48.694;9.476;2023-01-24T09:55:57;2.80;99.90
50013;DHT22;35901;48.694;9.476;2023-01-24T09:58:33;2.90;99.90
50013;DHT22;35901;48.694;9.476;2023-01-24T10:01:04;3.00;99.90
50013;DHT22;35901;48.694;9.476;2023-01-24T10:03:31;3.00;99.90
50013;DHT22;35901;48.694;9.476;2023-01-24T10:06:05;3.00;99.90
50013;DHT22;35901;48.694;9.476;2023-01-24T10:09:04;3.00;99.90
50013;DHT22;35901;48.694;9.476;2023-01-24T10:11:29;3.00;99.90
50013;DHT22;35901;48.694;9.476;2023-01-24T10:14:33;3.00;99.90
50013;DHT22;35901;48.694;9.476;2023-01-24T10:22:46;2.90;99.90
50013;DHT22;35901;48.694;9.476;2023-01-24T10:28:16;3.00;99.90
50013;DHT22;35901;48.694;9.476;2023-01-24T10:30:53;3.10;99.90
50013;DHT22;35901;48.694;9.476;2023-01-24T10:33:20;3.00;99.90
50013;DHT22;35901;48.694;9.476;2023-01-24T10:38:18;3.00;99.90
50013;DHT22;35901;48.694;9.476;2023-01-24T10:40:51;2.90;99.90
50013;DHT22;35901;48.694;9.476;2023-01-24T10:43:17;2.80;99.90
50013;DHT22;35901;48.694;9.476;2023-01-24T10:45:52;2.80;99.90
50013;DHT22;35901;48.694;9.476;2023-01-24T10:48:41;2.80;99.90
50013;DHT22;35901;48.694;9.476;2023-01-24T10:53:39;2.90;99.90
50013;DHT22;35901;48.694;9.476;2023-01-24T10:56:05;3.00;99.90
50013;DHT22;35901;48.694;9.476;2023-01-24T11:03:43;3.00;99.90
50013;DHT22;35901;48.694;9.476;2023-01-24T11:08:55;3.10;99.90
50013;DHT22;35901;48.694;9.476;2023-01-24T11:11:29;3.20;99.90
50013;DHT22;35901;48.694;9.476;2023-01-24T11:13:59;3.10;99.90
50013;DHT22;35901;48.694;9.476;2023-01-24T11:16:46;3.10;99.90
50013;DHT22;35901;48.694;9.476;2023-01-24T11:19:35;3.20;99.90
50013;DHT22;35901;48.694;9.476;2023-01-24T11:22:19;3.20;99.90
50013;DHT22;35901;48.694;9.476;2023-01-24T11:24:45;3.40;99.90
50013;DHT22;35901;48.694;9.476;2023-01-24T11:27:17;3.50;99.90
50013;DHT22;35901;48.694;9.476;2023-01-24T11:29:43;3.30;99.90
50013;DHT22;35901;48.694;9.476;2023-01-24T11:35:26;3.40;99.90
50013;DHT22;35901;48.694;9.476;2023-01-24T11:38:02;3.30;99.90
50013;DHT22;35901;48.694;9.476;2023-01-24T12:02:43;3.10;99.90
50013;DHT22;35901;48.694;9.476;2023-01-24T12:06:17;3.30;99.90
50013;DHT22;35901;48.694;9.476;2023-01-24T12:08:21;3.10;99.90
50013;DHT22;35901;48.694;9.476;2023-01-24T12:11:12;3.10;99.90
50013;DHT22;35901;48.694;9.476;2023-01-24T12:13:48;3.20;99.90
50013;DHT22;35901;48.694;9.476;2023-01-24T12:21:57;3.50;99.90
50013;DHT22;35901;48.694;9.476;2023-01-24T12:24:36;3.40;99.90
50013;DHT22;35901;48.694;9.476;2023-01-24T12:27:06;3.50;99.90
50013;DHT22;35901;48.694;9.476;2023-01-24T12:29:41;3.40;99.90
50013;DHT22;35901;48.694;9.476;2023-01-24T12:32:17;3.40;99.90
50013;DHT22;35901;48.694;9.476;2023-01-24T12:34:55;3.60;99.90
50013;DHT22;35901;48.694;9.476;2023-01-24T12:37:42;3.70;99.90
50013;DHT22;35901;48.694;9.476;2023-01-24T12:45:36;3.70;99.90
50013;DHT22;35901;48.694;9.476;2023-01-24T12:51:09;3.50;99.90
50013;DHT22;35901;48.694;9.476;2023-01-24T12:53:41;3.40;99.90
50013;DHT22;35901;48.694;9.476;2023-01-24T12:56:24;3.40;99.90
50013;DHT22;35901;48.694;9.476;2023-01-24T12:58:52;3.50;99.90
50013;DHT22;35901;48.694;9.476;2023-01-24T13:10:09;3.50;99.90
50013;DHT22;35901;48.694;9.476;2023-01-24T13:12:41;3.50;99.90
50013;DHT22;35901;48.694;9.476;2023-01-24T13:15:23;3.80;99.90
50013;DHT22;35901;48.694;9.476;2023-01-24T13:20:45;3.60;99.90
50013;DHT22;35901;48.694;9.476;2023-01-24T13:31:47;3.90;99.90
50013;DHT22;35901;48.694;9.476;2023-01-24T13:34:19;3.70;99.90
50013;DHT22;35901;48.694;9.476;2023-01-24T13:36:50;3.60;99.90
50013;DHT22;35901;48.694;9.476;2023-01-24T13:42:05;3.50;99.90
50013;DHT22;35901;48.694;9.476;2023-01-24T13:44:32;3.50;99.90
50013;DHT22;35901;48.694;9.476;2023-01-24T13:52:36;3.60;99.90
50013;DHT22;35901;48.694;9.476;2023-01-24T14:13:55;3.40;99.90
50013;DHT22;35901;48.694;9.476;2023-01-24T14:21:47;3.50;99.90
50013;DHT22;35901;48.694;9.476;2023-01-24T14:24:30;3.40;99.90
50013;DHT22;35901;48.694;9.476;2023-01-24T14:27:04;3.50;99.90
50013;DHT22;35901;48.694;9.476;2023-01-24T14:29:38;3.50;99.90
50013;DHT22;35901;48.694;9.476;2023-01-24T14:32:34;3.40;99.90
50013;DHT22;35901;48.694;9.476;2023-01-24T14:35:28;3.50;99.90
50013;DHT22;35901;48.694;9.476;2023-01-24T14:38:16;3.20;99.90
50013;DHT22;35901;48.694;9.476;2023-01-24T14:40:49;3.20;99.90
50013;DHT22;35901;48.694;9.476;2023-01-24T14:43:15;3.10;99.90
50013;DHT22;35901;48.694;9.476;2023-01-24T14:45:41;3.20;99.90
50013;DHT22;35901;48.694;9.476;2023-01-24T14:48:12;3.20;99.90
50013;DHT22;35901;48.694;9.476;2023-01-24T14:50:41;3.10;99.90
50013;DHT22;35901;48.694;9.476;2023-01-24T14:53:26;3.20;99.90
50013;DHT22;35901;48.694;9.476;2023-01-24T14:55:54;3.10;99.90
50013;DHT22;35901;48.694;9.476;2023-01-24T14:58:23;3.10;99.90
50013;DHT22;35901;48.694;9.476;2023-01-24T15:00:50;3.10;99.90
50013;DHT22;35901;48.694;9.476;2023-01-24T15:03:23;3.10;99.90
50013;DHT22;35901;48.694;9.476;2023-01-24T15:05:59;3.10;99.90
50013;DHT22;35901;48.694;9.476;2023-01-24T15:08:25;3.10;99.90
50013;DHT22;35901;48.694;9.476;2023-01-24T15:10:56;3.00;99.90
50013;DHT22;35901;48.694;9.476;2023-01-24T15:13:27;2.90;99.90
50013;DHT22;35901;48.694;9.476;2023-01-24T15:15:54;3.00;99.90
50013;DHT22;35901;48.694;9.476;2023-01-24T15:20:49;2.90;99.90
50013;DHT22;35901;48.694;9.476;2023-01-24T15:23:20;2.90;99.90
50013;DHT22;35901;48.694;9.476;2023-01-24T15:25:46;2.80;99.90
50013;DHT22;35901;48.694;9.476;2023-01-24T15:30:54;2.90;99.90
50013;DHT22;35901;48.694;9.476;2023-01-24T15:33:20;2.80;99.90
50013;DHT22;35901;48.694;9.476;2023-01-24T15:35:50;2.80;99.90
50013;DHT22;35901;48.694;9.476;2023-01-24T15:38:24;2.80;99.90
50013;DHT22;35901;48.694;9.476;2023-01-24T15:44:05;2.70;99.90
50013;DHT22;35901;48.694;9.476;2023-01-24T15:46:39;2.70;99.90
50013;DHT22;35901;48.694;9.476;2023-01-24T15:49:36;2.60;99.90
50013;DHT22;35901;48.694;9.476;2023-01-24T15:52:13;2.70;99.90
50013;DHT22;35901;48.694;9.476;2023-01-24T15:54:41;2.60;99.90
50013;DHT22;35901;48.694;9.476;2023-01-24T15:57:20;2.60;99.90
50013;DHT22;35901;48.694;9.476;2023-01-24T15:59:50;2.50;99.90
50013;DHT22;35901;48.694;9.476;2023-01-24T16:02:16;2.50;99.90
50013;DHT22;35901;48.694;9.476;2023-01-24T16:04:41;2.50;99.90
50013;DHT22;35901;48.694;9.476;2023-01-24T16:07:07;2.50;99.90
50013;DHT22;35901;48.694;9.476;2023-01-24T16:09:33;2.50;99.90
50013;DHT22;35901;48.694;9.476;2023-01-24T16:12:00;2.50;99.90
50013;DHT22;35901;48.694;9.476;2023-01-24T16:14:27;2.50;99.90
50013;DHT22;35901;48.694;9.476;2023-01-24T16:17:00;2.50;99.90
50013;DHT22;35901;48.694;9.476;2023-01-24T16:19:28;2.40;99.90
50013;DHT22;35901;48.694;9.476;2023-01-24T16:21:54;2.40;99.90
50013;DHT22;35901;48.694;9.476;2023-01-24T16:24:19;2.40;99.90
50013;DHT22;35901;48.694;9.476;2023-01-24T16:26:47;2.40;99.90
50013;DHT22;35901;48.694;9.476;2023-01-24T16:29:16;2.50;99.90
50013;DHT22;35901;48.694;9.476;2023-01-24T16:31:42;2.40;99.90
50013;DHT22;35901;48.694;9.476;2023-01-24T16:34:08;2.40;99.90
50013;DHT22;35901;48.694;9.476;2023-01-24T16:36:34;2.30;99.90
50013;DHT22;35901;48.694;9.476;2023-01-24T16:39:01;2.30;99.90
50013;DHT22;35901;48.694;9.476;2023-01-24T16:41:26;2.40;99.90
50013;DHT22;35901;48.694;9.476;2023-01-24T16:43:53;2.40;99.90
50013;DHT22;35901;48.694;9.476;2023-01-24T16:46:20;2.40;99.90
50013;DHT22;35901;48.694;9.476;2023-01-24T16:48:46;2.40;99.90
50013;DHT22;35901;48.694;9.476;2023-01-24T16:51:13;2.40;99.90
50013;DHT22;35901;48.694;9.476;2023-01-24T16:53:39;2.40;99.90
50013;DHT22;35901;48.694;9.476;2023-01-24T16:56:08;2.40;99.90
50013;DHT22;35901;48.694;9.476;2023-01-24T16:58:33;2.40;99.90
50013;DHT22;35901;48.694;9.476;2023-01-24T17:01:01;2.40;99.90
50013;DHT22;35901;48.694;9.476;2023-01-24T17:03:30;2.40;99.90
50013;DHT22;35901;48.694;9.476;2023-01-24T17:05:56;2.40;99.90
50013;DHT22;35901;48.694;9.476;2023-01-24T17:08:22;2.30;99.90
50013;DHT22;35901;48.694;9.476;2023-01-24T17:10:48;2.40;99.90
50013;DHT22;35901;48.694;9.476;2023-01-24T17:13:14;2.30;99.90
50013;DHT22;35901;48.694;9.476;2023-01-24T17:15:39;2.30;99.90
50013;DHT22;35901;48.694;9.476;2023-01-24T17:18:06;2.30;99.90
50013;DHT22;35901;48.694;9.476;2023-01-24T17:20:32;2.30;99.90
50013;DHT22;35901;48.694;9.476;2023-01-24T17:22:58;2.40;99.90
50013;DHT22;35901;48.694;9.476;2023-01-24T17:25:28;2.40;99.90
50013;DHT22;35901;48.694;9.476;2023-01-24T17:28:05;2.40;99.90
50013;DHT22;35901;48.694;9.476;2023-01-24T17:30:31;2.30;99.90
50013;DHT22;35901;48.694;9.476;2023-01-24T17:32:56;2.30;99.90
50013;DHT22;35901;48.694;9.476;2023-01-24T17:35:22;2.30;99.90
50013;DHT22;35901;48.694;9.476;2023-01-24T17:37:48;2.30;99.90
50013;DHT22;35901;48.694;9.476;2023-01-24T17:40:13;2.30;99.90
50013;DHT22;35901;48.694;9.476;2023-01-24T17:42:39;2.30;99.90
50013;DHT22;35901;48.694;9.476;2023-01-24T17:45:05;2.20;99.90
50013;DHT22;35901;48.694;9.476;2023-01-24T17:47:31;2.20;99.90
50013;DHT22;35901;48.694;9.476;2023-01-24T17:49:56;2.30;99.90
50013;DHT22;35901;48.694;9.476;2023-01-24T17:52:22;2.30;99.90
50013;DHT22;35901;48.694;9.476;2023-01-24T17:54:47;2.20;99.90
50013;DHT22;35901;48.694;9.476;2023-01-24T17:57:13;2.20;99.90
50013;DHT22;35901;48.694;9.476;2023-01-24T17:59:48;2.20;99.90
50013;DHT22;35901;48.694;9.476;2023-01-24T18:02:14;2.20;99.90
50013;DHT22;35901;48.694;9.476;2023-01-24T18:04:39;2.20;99.90
50013;DHT22;35901;48.694;9.476;2023-01-24T18:07:05;2.20;99.90
50013;DHT22;35901;48.694;9.476;2023-01-24T18:09:30;2.20;99.90
50013;DHT22;35901;48.694;9.476;2023-01-24T18:11:56;2.20;99.90
50013;DHT22;35901;48.694;9.476;2023-01-24T18:14:22;2.10;99.90